Sargents, CO

4:42 PM MST on January 21, 2017 (GMT -0700)
MNCKC2 | | Change Station

Elev 8990 ft 38.39 °N, 106.53 °W | Updated 35 minutes ago

Overcast
Overcast
15.0 °F
Feels Like 15.0 °F
N
2.0
Wind Variable Wind from SW
Gusts 6.0 mph

Today
High -- | Low -- °F
--% Chance of Precip.
Yesterday
High -- | Low -- °F
Precip. -- in
Pressure 29.51 in
Visibility 10.0 miles
Clouds Scattered Clouds 2800 ft
Mostly Cloudy 4500 ft
Overcast 7000 ft
Dew Point 12.0 °F
Humidity 86%
Rainfall in
Snow Depth Not available.
7:19 AM 5:16 PM
Waning Crescent, 31% visible
METAR KANK 212335Z AUTO 00000KT 10SM SCT028 BKN045 OVC070 00/M02 A2951 RMK AO1 T00001018
Pressure 29.51 in
Visibility 10.0 miles
Clouds Scattered Clouds 2800 ft
Mostly Cloudy 4500 ft
Overcast 7000 ft
Dew Point 12.0 °F
Humidity 86%
Rainfall in
Snow Depth Not available.
7:19 AM 5:16 PM
Waning Crescent, 31% visible
METAR KANK 212335Z AUTO 00000KT 10SM SCT028 BKN045 OVC070 00/M02 A2951 RMK AO1 T00001018

Get Your Daily Forecast Email!

Thanks for signing up!

Be on the lookout for a verification email in your inbox.

You'll start receiving the daily forecast at 8 AM.

×

10-Day Weather Forecast

Almanac

Astronomy

Jan. 21, 2017 Rise Set
Actual Time
Civil Twilight
Nautical Twilight
Astronomical Twilight
Moon
Length of Visible Light
Length of Day
Tomorrow will be .
, % of the Moon is Illuminated

Today's Extremes

State Highs State Lows

Community

WunderPhotos

Upload Photos

1,962,540 photos uploaded!

WunderBlog® & News

Nearby

Air Quality

  Air Quality AQ Index Pollutant
Not available.

Snow Depth

Station Depth Elevation

Earthquake Activity

City Distance Mag. Time & Date
Minimum magnitude displayed is 2.5.

Coastal Water Temperatures

Place Temperature

Stations

Nearby Weather Stations

Station Location Temp. Windchill Dew Point Humidity Wind Precip. Elev Updated Type
                   

Watches & Warnings

There are currently no watches in effect.